Time;durP1;ratioP1;P1;durP2;ratioP2;P2;SDS_P1;SDS_P2;PMS_P1;PMS_P2;Temp;Humidity;BMP_temperature;BMP_pressure;BME280_temperature;BME280_humidity;BME280_pressure;Samples;Min_cycle;Max_cycle;Signal;HPM_P1;HPM_P2
2023/01/21 00:01:18;;;;;;;68.40;47.30;;;;;;;-0.02;74.23;100638.13;109720;1267;23193;-77
2023/01/21 00:03:46;;;;;;;66.20;46.20;;;;;;;0.01;74.41;100637.81;109711;1267;22994;-79
2023/01/21 00:06:14;;;;;;;62.80;45.40;;;;;;;0.03;74.47;100639.54;109902;1262;21990;-78
2023/01/21 00:08:42;;;;;;;60.50;43.80;;;;;;;0.05;74.45;100639.05;110622;1262;22043;-78
2023/01/21 00:11:13;;;;;;;65.30;45.70;;;;;;;0.06;74.42;100635.64;110528;1263;23624;-79
2023/01/21 00:13:43;;;;;;;59.30;42.30;;;;;;;0.05;74.42;100638.71;110715;1262;21980;-79
2023/01/21 00:16:13;;;;;;;62.60;45.40;;;;;;;0.03;74.35;100641.09;110615;1263;23628;-78
2023/01/21 00:18:41;;;;;;;60.70;44.20;;;;;;;0.03;74.39;100641.60;110532;1263;22638;-79
2023/01/21 00:21:09;;;;;;;64.40;46.40;;;;;;;0.05;74.48;100640.59;110713;1261;22729;-78
2023/01/21 00:23:39;;;;;;;63.00;46.20;;;;;;;0.07;74.48;100645.91;110795;1262;22007;-81
2023/01/21 00:26:10;;;;;;;63.10;44.70;;;;;;;0.09;74.43;100646.80;110466;1251;21994;-78
2023/01/21 00:28:42;;;;;;;60.40;45.40;;;;;;;0.10;74.45;100647.48;110159;1262;23138;-78
2023/01/21 00:31:11;;;;;;;55.70;40.70;;;;;;;0.10;74.35;100646.63;110450;1262;21971;-78
2023/01/21 00:33:39;;;;;;;59.20;44.60;;;;;;;0.10;74.39;100650.74;110118;1262;22961;-77
2023/01/21 00:36:11;;;;;;;57.70;42.30;;;;;;;0.12;74.41;100652.64;110611;1262;22001;-78
2023/01/21 00:38:39;;;;;;;55.90;40.30;;;;;;;0.11;74.42;100652.13;110373;1262;21999;-78
2023/01/21 00:41:11;;;;;;;57.10;41.30;;;;;;;0.10;74.42;100654.17;110339;1262;21985;-79
2023/01/21 00:43:43;;;;;;;60.40;43.40;;;;;;;0.10;74.44;100656.91;110602;1263;22986;-78
2023/01/21 00:46:12;;;;;;;52.60;40.60;;;;;;;0.11;74.51;100661.88;110114;1267;21993;-77
2023/01/21 00:48:40;;;;;;;54.80;42.30;;;;;;;0.12;74.41;100663.09;110069;1267;22000;-76
2023/01/21 00:51:10;;;;;;;57.60;42.20;;;;;;;0.14;74.52;100669.09;109938;1267;22119;-79
2023/01/21 00:53:43;;;;;;;53.30;38.90;;;;;;;0.16;74.48;100671.68;109795;1268;22255;-79
2023/01/21 00:56:12;;;;;;;56.90;41.40;;;;;;;0.17;74.54;100676.13;109828;1271;21983;-79
2023/01/21 00:58:42;;;;;;;54.30;40.50;;;;;;;0.17;74.56;100669.47;109815;1270;21975;-77
2023/01/21 01:01:18;;;;;;;53.40;38.40;;;;;;;0.20;74.53;100668.30;109877;1271;22731;-79
2023/01/21 01:03:48;;;;;;;58.30;37.80;;;;;;;0.22;74.56;100671.74;109387;1272;21981;-78
2023/01/21 01:06:23;;;;;;;48.70;38.30;;;;;;;0.22;74.52;100675.50;109826;1272;22000;-78
2023/01/21 01:08:53;;;;;;;52.60;38.20;;;;;;;0.21;74.48;100678.58;109273;1269;21994;-78
2023/01/21 01:11:21;;;;;;;46.80;36.60;;;;;;;0.22;74.44;100681.66;109329;1276;22473;-78
2023/01/21 01:13:49;;;;;;;48.60;37.50;;;;;;;0.23;74.46;100684.77;109066;1272;22089;-78
2023/01/21 01:16:17;;;;;;;48.10;37.60;;;;;;;0.25;74.46;100687.34;109323;1273;22413;-79
2023/01/21 01:18:45;;;;;;;51.30;38.30;;;;;;;0.25;74.35;100682.20;109411;1273;22009;-77
2023/01/21 01:21:17;;;;;;;50.60;39.10;;;;;;;0.26;74.41;100681.35;109329;1268;22001;-78
2023/01/21 01:23:46;;;;;;;48.80;38.20;;;;;;;0.28;74.45;100684.45;109525;1268;22573;-78
2023/01/21 01:26:16;;;;;;;49.80;38.00;;;;;;;0.31;74.44;100686.20;110221;1267;22034;-78
2023/01/21 01:28:45;;;;;;;50.20;36.90;;;;;;;0.32;74.41;100683.13;110110;1268;22979;-78
2023/01/21 01:31:16;;;;;;;53.00;38.30;;;;;;;0.33;74.38;100681.42;109975;1268;22083;-77
2023/01/21 01:33:45;;;;;;;47.60;36.10;;;;;;;0.33;74.32;100681.42;110241;1262;21973;-77
2023/01/21 01:36:19;;;;;;;45.40;36.00;;;;;;;0.32;74.34;100677.81;110596;1261;22078;-76
2023/01/21 01:38:47;;;;;;;49.50;38.70;;;;;;;0.31;74.37;100675.59;110504;1262;22721;-78
2023/01/21 01:41:19;;;;;;;50.10;35.70;;;;;;;0.31;74.42;100675.42;110498;1262;21974;-77
2023/01/21 01:43:50;;;;;;;45.10;35.80;;;;;;;0.32;74.46;100672.69;110119;1265;21978;-78
2023/01/21 01:46:20;;;;;;;51.10;35.10;;;;;;;0.33;74.50;100673.04;109576;1272;21983;-76
2023/01/21 01:49:01;;;;;;;43.10;34.40;;;;;;;0.35;74.49;100676.83;109397;1271;22168;-76
2023/01/21 01:51:41;;;;;;;44.10;33.50;;;;;;;0.36;74.49;100675.63;109454;1272;23022;-76
2023/01/21 01:54:13;;;;;;;43.90;32.30;;;;;;;0.38;74.44;100674.98;109551;1272;23149;-77
2023/01/21 01:56:47;;;;;;;45.00;32.60;;;;;;;0.40;74.38;100675.33;109768;1272;23049;-76
2023/01/21 01:59:16;;;;;;;41.60;31.30;;;;;;;0.41;74.35;100682.20;109355;1272;22071;-77
2023/01/21 02:01:44;;;;;;;42.40;31.50;;;;;;;0.43;74.42;100683.91;109878;1267;22443;-78
2023/01/21 02:04:19;;;;;;;42.60;32.50;;;;;;;0.45;74.40;100683.24;110263;1262;23706;-77
2023/01/21 02:06:51;;;;;;;38.00;29.90;;;;;;;0.46;74.39;100682.23;110300;1264;23702;-78
2023/01/21 02:09:19;;;;;;;38.50;30.80;;;;;;;0.48;74.34;100681.05;110084;1265;22048;-77
2023/01/21 02:11:47;;;;;;;38.90;29.10;;;;;;;0.48;74.31;100686.36;109968;1267;21984;-76
2023/01/21 02:14:17;;;;;;;35.90;27.80;;;;;;;0.48;74.20;100688.92;109816;1267;21976;-77
2023/01/21 02:17:21;;;;;;;34.30;25.40;;;;;;;0.49;74.30;100684.81;110009;1267;22147;-77
2023/01/21 02:20:31;;;;;;;38.80;28.40;;;;;;;0.50;74.42;100686.36;109996;1267;21998;-78
2023/01/21 02:23:23;;;;;;;39.80;29.40;;;;;;;0.51;74.23;100687.58;109326;1273;22493;-77
2023/01/21 02:26:30;;;;;;;;;;;;;;;0.49;74.27;100679.86;109721;1270;22643;-76
2023/01/21 02:29:53;;;;;;;35.40;25.10;;;;;;;0.41;74.44;100679.77;109530;1273;21977;-79
2023/01/21 02:33:35;;;;;;;33.10;23.60;;;;;;;0.42;74.58;100675.85;109424;1273;23130;-78
2023/01/21 02:36:31;;;;;;;29.60;21.60;;;;;;;0.42;74.46;100677.57;108818;1277;22144;-78
2023/01/21 02:39:17;;;;;;;29.00;22.30;;;;;;;0.42;74.33;100679.98;108838;1280;23115;-77
2023/01/21 02:42:06;;;;;;;30.80;22.30;;;;;;;0.44;74.35;100684.09;108545;1285;22084;-78
2023/01/21 02:44:44;;;;;;;32.10;25.30;;;;;;;0.46;74.29;100682.56;108432;1285;23722;-77
2023/01/21 02:47:46;;;;;;;32.10;23.00;;;;;;;0.48;74.21;100681.05;108428;1285;22764;-77
2023/01/21 02:50:22;;;;;;;30.90;24.10;;;;;;;0.48;74.25;100679.34;108455;1285;22488;-78
2023/01/21 02:53:01;;;;;;;31.80;24.40;;;;;;;0.50;74.13;100674.04;108631;1285;22032;-78
2023/01/21 02:55:35;;;;;;;28.70;21.10;;;;;;;0.51;74.04;100678.50;108470;1284;22021;-78
2023/01/21 02:58:09;;;;;;;29.00;22.10;;;;;;;0.54;74.07;100679.91;108386;1284;22000;-77
2023/01/21 03:01:19;;;;;;;32.50;24.40;;;;;;;0.56;74.08;100678.55;108714;1279;22000;-78
2023/01/21 03:04:12;;;;;;;;;;;;;;;0.56;74.26;100674.95;109063;1280;23706;-78
2023/01/21 03:07:09;;;;;;;30.80;20.60;;;;;;;0.50;74.22;100674.39;109176;1273;22024;-78
2023/01/21 03:09:37;;;;;;;27.50;22.70;;;;;;;0.48;74.14;100674.70;109208;1268;23624;-79
2023/01/21 03:12:55;;;;;;;30.70;23.30;;;;;;;0.50;74.07;100671.30;109981;1268;21982;-78
2023/01/21 03:18:44;;;;;;;26.80;22.50;;;;;;;0.49;74.05;100663.07;109451;1272;23638;-77
2023/01/21 03:21:22;;;;;;;30.00;23.90;;;;;;;0.49;74.00;100658.27;109400;1271;23608;-76
2023/01/21 03:23:52;;;;;;;32.50;24.40;;;;;;;0.51;74.05;100658.64;109305;1271;22059;-77
2023/01/21 03:26:32;;;;;;;32.00;25.00;;;;;;;0.52;74.02;100655.40;109397;1270;22862;-78
2023/01/21 03:29:10;;;;;;;30.20;23.50;;;;;;;0.52;73.88;100652.83;109587;1269;22011;-77
2023/01/21 03:31:41;;;;;;;30.10;23.80;;;;;;;0.50;73.87;100653.48;109032;1275;23627;-77
2023/01/21 03:34:14;;;;;;;30.90;25.00;;;;;;;0.48;73.95;100651.08;109037;1271;21982;-78
2023/01/21 03:37:21;;;;;;;27.70;22.40;;;;;;;0.48;73.92;100651.07;109327;1261;23184;-78
2023/01/21 03:40:04;;;;;;;31.10;24.30;;;;;;;0.46;73.96;100645.24;109641;1271;23634;-77
2023/01/21 03:42:33;;;;;;;39.60;27.10;;;;;;;0.47;74.12;100640.95;109489;1271;22785;-76
2023/01/21 03:45:02;;;;;;;35.20;27.90;;;;;;;0.48;74.11;100634.64;110031;1270;21994;-78
2023/01/21 03:47:37;;;;;;;30.80;25.40;;;;;;;0.49;74.14;100642.36;109515;1271;22009;-77
2023/01/21 03:50:17;;;;;;;30.70;26.40;;;;;;;0.51;74.16;100642.54;109883;1267;23773;-77
2023/01/21 03:52:46;;;;;;;34.20;25.30;;;;;;;0.50;74.09;100635.50;110346;1263;22566;-78
2023/01/21 03:55:16;;;;;;;30.70;24.60;;;;;;;0.49;74.11;100631.22;110647;1262;21985;-77
2023/01/21 03:57:44;;;;;;;31.50;25.10;;;;;;;0.49;74.14;100632.24;110448;1262;21970;-77
2023/01/21 04:00:12;;;;;;;32.80;25.10;;;;;;;0.50;74.19;100630.71;110514;1265;22395;-79
2023/01/21 04:02:40;;;;;;;28.50;24.60;;;;;;;0.50;74.28;100633.12;109969;1267;22047;-79
2023/01/21 04:05:08;;;;;;;27.60;22.90;;;;;;;0.50;74.23;100638.77;110030;1265;21978;-78
2023/01/21 04:07:36;;;;;;;30.70;23.20;;;;;;;0.50;74.28;100636.36;109507;1272;21987;-78
2023/01/21 04:10:06;;;;;;;34.60;25.80;;;;;;;0.49;74.35;100631.73;109484;1270;21979;-78
2023/01/21 04:12:33;;;;;;;34.90;25.60;;;;;;;0.49;74.43;100626.77;109740;1270;22271;-78
2023/01/21 04:15:01;;;;;;;38.00;28.50;;;;;;;0.48;74.35;100620.42;109637;1268;22003;-78
2023/01/21 04:17:32;;;;;;;40.10;28.50;;;;;;;0.47;74.39;100618.52;109669;1268;23602;-78
2023/01/21 04:20:01;;;;;;;36.20;25.90;;;;;;;0.47;74.46;100622.99;110112;1268;21976;-79
2023/01/21 04:22:29;;;;;;;27.10;22.90;;;;;;;0.46;74.52;100621.61;110168;1268;22011;-78
2023/01/21 04:24:57;;;;;;;29.90;24.30;;;;;;;0.48;74.63;100612.38;109840;1263;22542;-78
2023/01/21 04:27:24;;;;;;;31.00;23.50;;;;;;;0.51;74.67;100611.02;110566;1262;21968;-77
2023/01/21 04:29:52;;;;;;;31.60;22.20;;;;;;;0.52;74.56;100608.30;110200;1262;24047;-78
2023/01/21 04:32:20;;;;;;;27.80;22.30;;;;;;;0.51;74.59;100604.19;110596;1262;22212;-77
2023/01/21 04:34:48;;;;;;;34.10;25.00;;;;;;;0.51;74.57;100602.98;110656;1262;23770;-78
2023/01/21 04:37:16;;;;;;;33.80;26.60;;;;;;;0.51;74.65;100605.03;110732;1262;22452;-78
2023/01/21 04:39:44;;;;;;;32.40;24.20;;;;;;;0.50;74.58;100601.27;110550;1263;22764;-80
2023/01/21 04:42:12;;;;;;;30.10;22.90;;;;;;;0.48;74.61;100597.13;109931;1266;21978;-78
2023/01/21 04:44:40;;;;;;;30.20;23.30;;;;;;;0.49;74.70;100595.09;110403;1265;21983;-78
2023/01/21 04:47:08;;;;;;;28.80;21.80;;;;;;;0.47;74.69;100592.67;110332;1265;23715;-77
2023/01/21 04:49:36;;;;;;;27.20;22.20;;;;;;;0.44;74.58;100590.08;109750;1266;24194;-77
2023/01/21 04:52:04;;;;;;;27.90;21.60;;;;;;;0.43;74.77;100584.59;110312;1266;22001;-78
2023/01/21 04:54:31;;;;;;;25.50;21.10;;;;;;;0.42;74.73;100584.77;110466;1265;24688;-77
2023/01/21 04:56:59;;;;;;;26.30;21.00;;;;;;;0.43;74.83;100590.60;109955;1266;23812;-75
2023/01/21 04:59:27;;;;;;;27.00;21.80;;;;;;;0.40;74.78;100587.48;110041;1263;23652;-78
2023/01/21 05:01:55;;;;;;;28.40;21.40;;;;;;;0.39;74.91;100585.27;110577;1256;23023;-78
2023/01/21 05:04:23;;;;;;;30.40;23.50;;;;;;;0.39;74.95;100579.95;110604;1260;21979;-78
2023/01/21 05:06:51;;;;;;;26.80;21.20;;;;;;;0.38;75.00;100578.06;110574;1263;21977;-77
2023/01/21 05:09:19;;;;;;;29.30;21.90;;;;;;;0.37;74.98;100577.54;109803;1268;22047;-78
2023/01/21 05:11:46;;;;;;;27.60;20.30;;;;;;;0.37;74.97;100579.09;110048;1269;22003;-78
2023/01/21 05:14:24;;;;;;;28.80;22.40;;;;;;;0.37;75.11;100579.06;109934;1269;22045;-79
2023/01/21 05:17:13;;;;;;;26.70;21.00;;;;;;;0.35;75.17;100575.46;109696;1262;23596;-77
2023/01/21 05:19:41;;;;;;;28.10;22.80;;;;;;;0.35;75.17;100577.52;109910;1268;22992;-78
2023/01/21 05:22:08;;;;;;;30.10;22.30;;;;;;;0.35;75.09;100573.58;109873;1266;23609;-77
2023/01/21 05:24:36;;;;;;;34.70;26.90;;;;;;;0.35;75.23;100570.51;109642;1269;21994;-78
2023/01/21 05:27:06;;;;;;;42.60;27.10;;;;;;;0.33;75.16;100570.32;109967;1261;21981;-77
2023/01/21 05:29:34;;;;;;;37.90;27.60;;;;;;;0.31;75.17;100567.55;110612;1261;21958;-77
2023/01/21 05:32:02;;;;;;;34.30;26.70;;;;;;;0.31;75.27;100563.97;110539;1261;22955;-78
2023/01/21 05:34:30;;;;;;;42.60;29.40;;;;;;;0.31;75.28;100559.02;110704;1261;21924;-77
2023/01/21 05:36:58;;;;;;;27.90;24.00;;;;;;;0.31;75.32;100558.66;109986;1268;21993;-77
2023/01/21 05:39:26;;;;;;;30.70;24.80;;;;;;;0.31;75.38;100557.98;109660;1268;22048;-77
2023/01/21 05:41:53;;;;;;;25.30;21.70;;;;;;;0.30;75.34;100557.11;109322;1269;23147;-78
2023/01/21 05:44:21;;;;;;;26.20;20.00;;;;;;;0.31;75.41;100559.85;109728;1269;22084;-77
2023/01/21 05:46:49;;;;;;;26.40;19.20;;;;;;;0.28;75.42;100558.13;109456;1270;21990;-79
2023/01/21 05:49:18;;;;;;;26.10;17.60;;;;;;;0.26;75.50;100559.48;109753;1268;21995;-78
2023/01/21 05:51:46;;;;;;;21.20;17.30;;;;;;;0.24;75.55;100562.38;109639;1268;23752;-77
2023/01/21 05:54:14;;;;;;;21.60;16.50;;;;;;;0.23;75.54;100558.27;109634;1263;22996;-77
2023/01/21 05:56:42;;;;;;;25.50;18.90;;;;;;;0.22;75.57;100552.43;110597;1260;23826;-77
2023/01/21 05:59:11;;;;;;;23.10;17.30;;;;;;;0.25;75.68;100549.04;110388;1262;22177;-77
2023/01/21 06:01:38;;;;;;;24.20;17.70;;;;;;;0.26;75.57;100552.46;110518;1262;22031;-77
2023/01/21 06:04:06;;;;;;;18.60;15.00;;;;;;;0.25;75.59;100552.27;110426;1261;23055;-78
2023/01/21 06:06:34;;;;;;;18.90;15.10;;;;;;;0.24;75.62;100546.63;110626;1261;23228;-77
2023/01/21 06:09:03;;;;;;;19.40;14.00;;;;;;;0.24;75.69;100545.94;110378;1261;21966;-78
2023/01/21 06:11:31;;;;;;;17.00;14.50;;;;;;;0.23;75.74;100541.83;109879;1267;22007;-77
2023/01/21 06:13:59;;;;;;;19.70;13.90;;;;;;;0.23;75.80;100537.20;110293;1267;23627;-78
2023/01/21 06:16:27;;;;;;;18.50;14.90;;;;;;;0.23;75.91;100533.42;110305;1266;23132;-79
2023/01/21 06:18:55;;;;;;;21.90;14.70;;;;;;;0.22;75.96;100534.64;110262;1266;21995;-78
2023/01/21 06:21:22;;;;;;;19.50;14.70;;;;;;;0.22;75.84;100526.58;109887;1269;23709;-76
2023/01/21 06:23:50;;;;;;;18.90;15.70;;;;;;;0.21;75.87;100523.33;109548;1270;23658;-78
2023/01/21 06:26:18;;;;;;;19.50;15.10;;;;;;;0.23;76.04;100518.20;109408;1270;23049;-79
2023/01/21 06:28:46;;;;;;;15.70;13.00;;;;;;;0.23;76.09;100511.71;109610;1268;21972;-79
2023/01/21 06:31:14;;;;;;;16.30;12.30;;;;;;;0.24;76.12;100507.08;110120;1267;21995;-78
2023/01/21 06:33:42;;;;;;;13.10;11.40;;;;;;;0.22;76.18;100504.86;110279;1264;23892;-79
2023/01/21 06:36:10;;;;;;;14.30;11.80;;;;;;;0.20;76.16;100502.27;110124;1267;23109;-77
2023/01/21 06:38:38;;;;;;;16.10;13.50;;;;;;;0.19;76.22;100499.36;109662;1268;22371;-78
2023/01/21 06:41:06;;;;;;;13.80;11.00;;;;;;;0.19;76.17;100500.39;110264;1267;23599;-78
2023/01/21 06:43:34;;;;;;;14.80;10.90;;;;;;;0.19;76.21;100498.48;109916;1270;21976;-79
2023/01/21 06:46:02;;;;;;;13.80;10.90;;;;;;;0.19;76.29;100496.63;109666;1270;23793;-77
2023/01/21 06:48:30;;;;;;;15.40;12.30;;;;;;;0.20;76.28;100498.84;109667;1269;21984;-76
2023/01/21 06:51:01;;;;;;;12.20;9.10;;;;;;;0.19;76.21;100494.21;109733;1270;22024;-78
2023/01/21 06:53:29;;;;;;;14.90;10.10;;;;;;;0.18;76.30;100489.23;109997;1266;21983;-79
2023/01/21 06:55:59;;;;;;;13.60;10.70;;;;;;;0.15;76.34;100488.20;109939;1265;22751;-78
2023/01/21 06:58:27;;;;;;;11.70;9.70;;;;;;;0.14;76.43;100483.92;110003;1265;21982;-78
2023/01/21 07:00:56;;;;;;;11.80;8.70;;;;;;;0.13;76.46;100482.70;109992;1261;23039;-77
2023/01/21 07:03:24;;;;;;;11.60;9.40;;;;;;;0.12;76.45;100478.94;110602;1261;21972;-78
2023/01/21 07:05:52;;;;;;;12.20;9.30;;;;;;;0.12;76.52;100481.67;110292;1262;22739;-78
2023/01/21 07:08:21;;;;;;;13.60;9.80;;;;;;;0.12;76.60;100483.39;110073;1268;21973;-76
2023/01/21 07:10:48;;;;;;;10.90;8.60;;;;;;;0.12;76.65;100480.48;110058;1267;23645;-77
2023/01/21 07:13:16;;;;;;;10.80;9.40;;;;;;;0.12;76.64;100478.77;109464;1271;21982;-78
2023/01/21 07:15:44;;;;;;;11.10;8.60;;;;;;;0.10;76.54;100478.41;109890;1271;21985;-77
2023/01/21 07:18:12;;;;;;;12.00;9.00;;;;;;;0.09;76.68;100483.88;109778;1270;23658;-78
2023/01/21 07:20:41;;;;;;;10.10;8.60;;;;;;;0.09;76.71;100485.23;109493;1269;22026;-77
2023/01/21 07:23:09;;;;;;;8.30;7.20;;;;;;;0.09;76.75;100483.71;109451;1257;23044;-77
2023/01/21 07:25:37;;;;;;;9.20;7.60;;;;;;;0.11;76.79;100485.60;109682;1265;23631;-78
2023/01/21 07:28:05;;;;;;;9.10;7.10;;;;;;;0.11;76.92;100490.40;110272;1265;21982;-79
2023/01/21 07:30:33;;;;;;;9.80;7.90;;;;;;;0.11;76.94;100498.43;109671;1268;22047;-84
2023/01/21 07:33:07;;;;;;;10.00;7.20;;;;;;;0.12;76.96;100498.61;110254;1268;22490;-81
2023/01/21 07:35:35;;;;;;;8.20;7.30;;;;;;;0.13;76.96;100498.28;110297;1267;22022;-82
2023/01/21 07:38:03;;;;;;;10.80;7.60;;;;;;;0.13;77.02;100504.27;110078;1267;21984;-80
2023/01/21 07:40:31;;;;;;;9.70;7.40;;;;;;;0.14;77.10;100509.42;109651;1262;21994;-81
2023/01/21 07:42:59;;;;;;;14.70;7.60;;;;;;;0.16;77.12;100530.64;109616;1270;22449;-84
2023/01/21 07:45:27;;;;;;;7.00;5.70;;;;;;;0.17;77.14;100542.64;109237;1276;22008;-84
2023/01/21 07:47:55;;;;;;;10.50;7.60;;;;;;;0.19;77.08;100541.62;109171;1273;23001;-74
2023/01/21 07:50:23;;;;;;;7.00;5.50;;;;;;;0.18;77.08;100544.35;109413;1273;21990;-77
2023/01/21 07:52:54;;;;;;;8.30;7.40;;;;;;;0.17;77.11;100544.02;109534;1273;22987;-77
2023/01/21 07:55:22;;;;;;;7.50;6.70;;;;;;;0.17;77.23;100539.20;109435;1273;23624;-76
2023/01/21 07:57:50;;;;;;;7.20;6.50;;;;;;;0.17;77.17;100539.55;108932;1275;22005;-78
2023/01/21 08:00:18;;;;;;;8.30;7.20;;;;;;;0.16;77.21;100539.20;109351;1274;22061;-77
2023/01/21 08:02:50;;;;;;;12.00;7.20;;;;;;;0.15;77.25;100537.50;109439;1268;21982;-77
2023/01/21 08:05:19;;;;;;;9.10;7.40;;;;;;;0.15;77.28;100536.98;110102;1268;21953;-76
2023/01/21 08:07:49;;;;;;;11.40;7.70;;;;;;;0.18;77.47;100537.52;109990;1269;21979;-77
2023/01/21 08:10:21;;;;;;;12.80;8.40;;;;;;;0.21;77.53;100535.30;109913;1269;22101;-77
2023/01/21 08:12:48;;;;;;;10.80;8.00;;;;;;;0.24;77.57;100534.98;110091;1266;22654;-78
2023/01/21 08:15:16;;;;;;;11.80;8.40;;;;;;;0.24;77.49;100537.39;110284;1262;22280;-78
2023/01/21 08:17:46;;;;;;;12.70;9.60;;;;;;;0.26;77.61;100538.09;109811;1268;22005;-76
2023/01/21 08:20:14;;;;;;;17.00;10.40;;;;;;;0.30;77.77;100530.75;109650;1268;21985;-75
2023/01/21 08:22:45;;;;;;;17.80;11.80;;;;;;;0.34;77.65;100528.21;110022;1267;23074;-77
2023/01/21 08:25:13;;;;;;;23.40;15.60;;;;;;;0.34;77.63;100528.22;109571;1267;23579;-77
2023/01/21 08:27:41;;;;;;;21.40;12.50;;;;;;;0.34;77.68;100529.92;109939;1267;22271;-77
2023/01/21 08:30:10;;;;;;;15.00;11.40;;;;;;;0.37;77.75;100529.27;110111;1267;21990;-77
2023/01/21 08:32:38;;;;;;;9.90;8.10;;;;;;;0.40;77.71;100526.37;110019;1268;22041;-75
2023/01/21 08:35:07;;;;;;;11.50;8.50;;;;;;;0.42;77.65;100525.35;109925;1263;21964;-75
2023/01/21 08:37:35;;;;;;;19.60;12.00;;;;;;;0.44;77.86;100519.03;110314;1262;21972;-75
2023/01/21 08:40:03;;;;;;;29.50;12.60;;;;;;;0.47;77.80;100517.00;110558;1263;22246;-76
2023/01/21 08:42:31;;;;;;;26.50;14.90;;;;;;;0.48;77.69;100517.85;110573;1263;22003;-77
2023/01/21 08:44:59;;;;;;;25.90;13.40;;;;;;;0.49;77.80;100513.06;110288;1263;21971;-75
2023/01/21 08:47:27;;;;;;;24.00;12.20;;;;;;;0.52;77.87;100513.43;110444;1249;23065;-75
2023/01/21 08:49:54;;;;;;;17.50;11.80;;;;;;;0.54;77.88;100520.98;110314;1262;24578;-76
2023/01/21 08:52:23;;;;;;;15.40;10.00;;;;;;;0.58;77.88;100516.71;110558;1260;22057;-76
2023/01/21 08:54:51;;;;;;;19.30;15.90;;;;;;;0.59;77.82;100519.29;110587;1262;21989;-76
2023/01/21 08:57:20;;;;;;;12.00;8.80;;;;;;;0.62;77.85;100519.65;110372;1262;21975;-75
2023/01/21 08:59:49;;;;;;;8.90;7.20;;;;;;;0.64;77.82;100518.46;110685;1262;21991;-75
2023/01/21 09:02:16;;;;;;;11.90;10.10;;;;;;;0.63;77.80;100518.63;110276;1262;22015;-76
2023/01/21 09:04:45;;;;;;;13.00;9.90;;;;;;;0.63;77.72;100512.45;110430;1262;22055;-76
2023/01/21 09:07:14;;;;;;;10.70;7.90;;;;;;;0.62;77.75;100515.20;110360;1262;21970;-75
2023/01/21 09:09:41;;;;;;;15.00;13.10;;;;;;;0.63;77.75;100512.63;110591;1260;22017;-76
2023/01/21 09:12:09;;;;;;;10.90;8.30;;;;;;;0.63;77.77;100513.84;110369;1262;22905;-75
2023/01/21 09:14:37;;;;;;;10.40;7.50;;;;;;;0.64;77.76;100514.02;110324;1262;21981;-77
2023/01/21 09:17:05;;;;;;;13.90;8.40;;;;;;;0.64;77.74;100510.59;110564;1262;24095;-74
2023/01/21 09:19:33;;;;;;;10.40;9.10;;;;;;;0.63;77.72;100506.64;110584;1261;21972;-75
2023/01/21 09:22:01;;;;;;;11.20;8.60;;;;;;;0.62;77.82;100504.74;110463;1262;22000;-76
2023/01/21 09:24:30;;;;;;;11.10;9.00;;;;;;;0.61;77.68;100511.42;110529;1262;21983;-75
2023/01/21 09:26:58;;;;;;;16.00;11.20;;;;;;;0.58;77.71;100511.76;110394;1262;22526;-75
2023/01/21 09:29:26;;;;;;;10.60;7.80;;;;;;;0.58;77.85;100509.52;110505;1262;22347;-77
2023/01/21 09:31:54;;;;;;;16.40;8.70;;;;;;;0.60;77.80;100507.82;110578;1262;23525;-74
2023/01/21 09:34:22;;;;;;;16.50;9.00;;;;;;;0.59;77.79;100510.55;110615;1262;21937;-75
2023/01/21 09:36:50;;;;;;;9.30;7.50;;;;;;;0.60;77.92;100507.30;110281;1262;21940;-72
2023/01/21 09:39:19;;;;;;;14.70;8.30;;;;;;;0.60;77.82;100510.73;109853;1268;23787;-75
2023/01/21 09:41:54;;;;;;;12.50;8.20;;;;;;;0.61;77.85;100506.96;109572;1268;21976;-75
2023/01/21 09:44:43;;;;;;;13.40;9.90;;;;;;;0.60;77.86;100505.42;109653;1268;23659;-75
2023/01/21 09:47:23;;;;;;;10.90;8.40;;;;;;;0.60;77.85;100503.71;109343;1272;21984;-77
2023/01/21 09:50:16;;;;;;;10.80;9.70;;;;;;;0.60;77.83;100506.79;108262;1270;1584280;-75
2023/01/21 09:52:47;;;;;;;12.70;10.60;;;;;;;0.58;77.85;100504.90;109267;1272;23446;-76
2023/01/21 09:55:22;;;;;;;16.00;11.90;;;;;;;0.60;77.91;100506.27;109399;1271;21965;-75
2023/01/21 09:58:17;;;;;;;11.40;8.80;;;;;;;0.60;77.95;100496.69;109502;1267;21976;-75
2023/01/21 10:01:28;;;;;;;9.50;8.10;;;;;;;0.57;77.89;100499.41;110047;1267;21973;-76
2023/01/21 10:04:35;;;;;;;12.80;8.30;;;;;;;0.53;77.92;100503.51;109959;1267;22430;-75
2023/01/21 10:07:17;;;;;;;7.70;6.50;;;;;;;0.51;78.04;100498.70;110544;1262;24293;-76
2023/01/21 10:10:30;;;;;;;10.20;7.80;;;;;;;0.51;77.92;100495.09;110269;1262;23064;-75
2023/01/21 10:13:36;;;;;;;9.50;7.10;;;;;;;0.49;78.10;100492.86;109695;1268;21991;-76
2023/01/21 10:16:38;;;;;;;12.60;8.60;;;;;;;0.53;78.21;100486.90;109580;1270;21981;-75
2023/01/21 10:19:13;;;;;;;13.40;9.90;;;;;;;0.56;78.31;100488.11;109352;1271;23053;-76
2023/01/21 10:22:01;;;;;;;9.80;8.40;;;;;;;0.59;78.29;100490.34;109358;1270;23673;-76
2023/01/21 10:24:39;;;;;;;10.70;8.60;;;;;;;0.62;78.20;100485.05;109587;1270;23080;-75
2023/01/21 10:27:15;;;;;;;10.50;8.90;;;;;;;0.63;78.24;100485.75;109689;1269;21995;-76
2023/01/21 10:29:47;;;;;;;12.60;8.80;;;;;;;0.66;78.26;100485.25;109655;1270;22245;-77
2023/01/21 10:32:25;;;;;;;14.70;10.00;;;;;;;0.70;78.16;100485.61;109377;1270;21996;-75
2023/01/21 10:34:59;;;;;;;14.90;10.20;;;;;;;0.72;78.17;100483.04;109715;1270;21988;-75
2023/01/21 10:37:42;;;;;;;20.40;12.80;;;;;;;0.76;78.24;100483.58;109346;1270;22171;-75
2023/01/21 10:40:41;;;;;;;18.80;12.00;;;;;;;0.79;78.09;100483.75;109407;1270;22040;-74
2023/01/21 10:43:53;;;;;;;17.00;10.60;;;;;;;0.80;78.13;100478.29;109707;1268;22005;-79
2023/01/21 10:46:52;;;;;;;15.50;10.50;;;;;;;0.79;78.06;100478.80;109172;1275;23726;-76
2023/01/21 10:49:56;;;;;;;10.40;8.10;;;;;;;0.81;78.04;100483.77;109635;1268;21997;-75
2023/01/21 10:52:36;;;;;;;9.60;7.80;;;;;;;0.81;78.04;100483.42;110228;1267;21976;-76
2023/01/21 10:55:15;;;;;;;11.90;7.40;;;;;;;0.84;78.10;100483.44;110056;1267;22987;-75
2023/01/21 10:58:26;;;;;;;10.70;7.80;;;;;;;0.86;78.02;100483.96;110206;1266;21979;-76
2023/01/21 11:00:59;;;;;;;9.10;7.70;;;;;;;0.87;77.95;100480.02;109268;1273;21982;-75
2023/01/21 11:03:40;;;;;;;12.00;8.80;;;;;;;0.88;77.81;100480.38;109263;1273;21953;-76
2023/01/21 11:06:16;;;;;;;12.70;9.20;;;;;;;0.89;77.82;100477.81;109414;1273;22026;-76
2023/01/21 11:08:54;;;;;;;10.20;9.00;;;;;;;0.91;77.81;100476.27;109134;1269;23058;-75
2023/01/21 11:11:28;;;;;;;10.50;8.80;;;;;;;0.93;77.96;100478.67;108970;1273;21991;-75
2023/01/21 11:13:57;;;;;;;10.20;8.00;;;;;;;0.97;77.89;100475.44;109603;1273;23771;-76
2023/01/21 11:16:52;;;;;;;10.60;9.00;;;;;;;0.98;77.80;100471.16;109207;1273;23714;-75
2023/01/21 11:19:29;;;;;;;11.40;7.80;;;;;;;1.00;77.76;100472.53;109072;1279;23770;-74
2023/01/21 11:22:30;;;;;;;8.70;6.80;;;;;;;1.00;77.58;100471.50;108847;1279;22687;-75
2023/01/21 11:24:59;;;;;;;8.90;7.40;;;;;;;0.98;77.65;100466.17;108695;1279;23019;-76
2023/01/21 11:27:27;;;;;;;11.30;7.80;;;;;;;0.98;77.64;100467.39;108842;1278;22060;-75
2023/01/21 11:29:59;;;;;;;13.30;10.20;;;;;;;1.00;77.68;100467.04;109011;1274;21996;-74
2023/01/21 11:32:31;;;;;;;13.40;9.80;;;;;;;1.01;77.57;100466.70;108803;1277;21991;-74
2023/01/21 11:35:22;;;;;;;10.20;7.10;;;;;;;0.99;77.44;100465.15;109020;1279;22049;-75
2023/01/21 11:37:49;;;;;;;11.60;9.10;;;;;;;0.94;77.45;100465.33;108886;1273;22164;-74
2023/01/21 11:40:24;;;;;;;12.10;8.60;;;;;;;0.95;77.52;100466.00;109226;1273;23595;-75
2023/01/21 11:42:55;;;;;;;12.50;10.90;;;;;;;0.95;77.51;100466.85;109277;1272;22007;-73
2023/01/21 11:45:35;;;;;;;11.30;9.50;;;;;;;0.96;77.53;100469.94;109341;1273;21987;-74